Flight Track Log - Related Links

Times and Time Zones

All times are in EDT time to prevent confusion due to time zone crossing. See the DAL3672 flight status page for this flight to view local times or setup timezone preferences in your user account.

Time Position Orientation Groundspeed Altitude Reporting Facility
EDT Latitude Longitude Course Direction KTS MPH feet Rate Location/Type
Wed 10:33:51 AM 42.2272 -83.3369 94° East 151 174 1,200  Level Cleveland Center
Wed 10:34:21 AM 42.2461 -83.3208 32° Northeast 164 189 2,500 2,041 Climbing Cleveland Center
Wed 10:35:28 AM 42.2975 -83.2669 38° Northeast 253 291 4,500 2,063 Climbing Cleveland Center
Wed 10:36:29 AM 42.3594 -83.2050 36° Northeast 293 337 6,900 2,215 Climbing Cleveland Center
Wed 10:37:00 AM 42.3169 -82.7070 78° East  Level FlightAware Approximate
Wed 10:37:38 AM 42.3619 -83.0983 88° East 296 341 9,300  Level Cleveland Center
Wed 10:38:00 AM 42.3401 -82.5430 77° East  Level FlightAware Approximate
Wed 10:38:38 AM 42.3203 -82.9928 118° Southeast 281 323 10,000  Level Cleveland Center
Wed 10:39:00 AM 42.3631 -82.3842 94° East  Level FlightAware Approximate
Wed 10:39:38 AM 42.2789 -82.8789 116° Southeast 305 351 12,200  Level Cleveland Center
Wed 10:40:38 AM 42.3022 -82.7419 77° East 326 375 13,900 1,550 Climbing Cleveland Center
Wed 10:41:38 AM 42.3361 -82.5972 72° East 359 413 15,300 1,650 Climbing Cleveland Center
Wed 10:42:38 AM 42.3658 -82.4492 75° East 387 445 17,200 1,350 Climbing Cleveland Center
Wed 10:43:38 AM 42.3600 -82.2972 93° East 397 457 18,000 1,200 Climbing Cleveland Center
Wed 10:44:38 AM 42.3539 -82.1256 93° East 409 471 19,600 1,450 Climbing Cleveland Center
Wed 10:45:38 AM 42.3456 -81.9625 94° East 422 486 20,900 1,000 Climbing Cleveland Center
Wed 10:46:38 AM 42.3392 -81.7994 93° East 427 491 21,600 800 Climbing Cleveland Center
Wed 10:47:38 AM 42.3325 -81.6336 93° East 432 497 22,500 950 Climbing Cleveland Center
Wed 10:48:38 AM 42.3256 -81.4678 93° East 447 514 23,500 1,100 Climbing Cleveland Center
Wed 10:49:38 AM 42.3183 -81.2964 93° East 447 514 24,700 900 Climbing Cleveland Center
Wed 10:50:38 AM 42.3086 -81.1475 95° East 453 521 25,300 650 Climbing Cleveland Center
Wed 10:51:38 AM 42.3011 -80.9761 93° East 453 521 26,000 600 Climbing Cleveland Center
Wed 10:52:38 AM 42.3017 -80.7964 90° East 464 534 26,500 400 Climbing Cleveland Center
Wed 10:53:38 AM 42.3100 -80.6197 86° East 469 540 26,800 400 Climbing Cleveland Center
Wed 10:54:38 AM 42.3183 -80.4344 86° East 485 558 27,300 500 Climbing Cleveland Center
Wed 10:55:38 AM 42.3283 -80.2489 86° East 490 564 27,800 450 Climbing Cleveland Center
Wed 10:56:38 AM 42.3381 -80.0494 86° East 490 564 28,200 350 Climbing Cleveland Center
Wed 10:57:38 AM 42.3475 -79.8611 86° East 490 564 28,500 300 Climbing Cleveland Center
Wed 10:58:38 AM 42.3544 -79.6756 87° East 490 564 28,800 250 Climbing Cleveland Center
Wed 10:59:38 AM 42.3633 -79.4900 86° East 496 571 29,000 100 Climbing Cleveland Center
Wed 11:00:38 AM 42.3717 -79.2989 87° East 501 577 29,000  Level Cleveland Center
Wed 11:01:38 AM 42.3778 -79.1103 87° East 501 577 29,000  Level Cleveland Center
Wed 11:02:38 AM 42.3856 -78.9133 87° East 501 577 29,000  Level Cleveland Center
Wed 11:03:38 AM 42.3931 -78.7247 87° East 501 577 29,000  Level Cleveland Center
Wed 11:04:38 AM 42.4003 -78.5306 87° East 506 582 29,000  Level Cleveland Center
Wed 11:05:38 AM 42.4072 -78.3392 87° East 506 582 29,000  Level Cleveland Center
Wed 11:06:38 AM 42.4117 -78.1506 88° East 506 582 29,000  Level Cleveland Center
Wed 11:07:38 AM 42.4178 -77.9561 87° East 506 582 29,000  Level Cleveland Center
Wed 11:08:38 AM 42.4217 -77.7619 88° East 506 582 29,000  Level Cleveland Center
Wed 11:09:38 AM 42.4272 -77.5731 88° East 511 588 29,000  Level Cleveland Center
Wed 11:10:38 AM 42.4328 -77.3956 88° East 511 588 29,000  Level Cleveland Center
Wed 11:12:52 AM 42.4475 -76.9708 87° East 500 575 29,000  Level Boston Center
Wed 11:13:52 AM 42.4678 -76.7753 82° East 505 581 29,000  Level Boston Center
Wed 11:14:52 AM 42.4892 -76.5881 81° East 505 581 29,000  Level Boston Center
Wed 11:15:52 AM 42.5064 -76.3975 83° East 511 588 29,000  Level Boston Center
Wed 11:16:52 AM 42.5306 -76.1850 81° East 517 595 29,000  Level Boston Center
Wed 11:17:52 AM 42.5489 -75.9972 82° East 517 595 29,000  Level Boston Center
Wed 11:18:52 AM 42.5672 -75.8092 82° East 512 589 29,000  Level Boston Center
Wed 11:19:52 AM 42.5853 -75.6156 83° East 512 589 29,000  Level Boston Center
Wed 11:20:52 AM 42.6050 -75.4247 82° East 512 589 29,000  Level Boston Center
Wed 11:21:52 AM 42.6222 -75.2392 83° East 507 583 29,000  Level Boston Center
Wed 11:22:52 AM 42.6392 -75.0508 83° East 502 578 29,000  Level Boston Center
Wed 11:23:52 AM 42.6561 -74.8597 83° East 502 578 29,000  Level Boston Center
Wed 11:24:52 AM 42.6725 -74.6711 83° East 502 578 29,000  Level Boston Center
Wed 11:25:52 AM 42.6881 -74.4992 83° East 502 578 29,000 -450 Level Boston Center
Wed 11:26:52 AM 42.7061 -74.3106 83° East 502 578 28,100 -1,050 Descending Boston Center
Wed 11:27:52 AM 42.7214 -74.1217 84° East 497 572 26,900 -1,200 Descending Boston Center
Wed 11:28:52 AM 42.7344 -73.9383 84° East 492 566 25,700 1,050 Descending Boston Center
Wed 11:29:52 AM 42.7514 -73.7378 83° East 492 566 29,000 -1,050 Climbing Boston Center
Wed 11:30:52 AM 42.7575 -73.5514 87° East 492 566 23,600 -3,400 Descending Boston Center
Wed 11:31:52 AM 42.7656 -73.3733 86° East 487 560 22,200 -1,550 Descending Boston Center
Wed 11:32:52 AM 42.7708 -73.1981 88° East 470 541 20,500 -1,550 Descending Boston Center
Wed 11:33:52 AM 42.7761 -73.0283 88° East 458 527 19,100 -800 Descending Boston Center
Wed 11:34:52 AM 42.7808 -72.8758 88° East 458 527 18,900 -950 Descending Boston Center
Wed 11:35:52 AM 42.7856 -72.7003 88° East 453 521 17,200 -1,750 Descending Boston Center
Wed 11:36:52 AM 42.7881 -72.5306 89° East 455 524 15,400 900 Descending Boston Center
Wed 11:37:52 AM 42.7942 -72.3750 87° East 432 497 19,000 -2,250 Climbing Boston Center
Wed 11:38:52 AM 42.8067 -72.2222 84° East 400 460 10,900 -4,550 Descending Boston Center
Wed 11:39:52 AM 42.8167 -72.0919 84° East 358 412 9,900 -1,300 Descending Boston Center
Wed 11:40:52 AM 42.8100 -71.9817 95° East 302 348 8,300 -1,500 Descending Boston Center
Wed 11:41:52 AM 42.8053 -71.8714 93° East 291 335 6,900 -1,500 Descending Boston Center
Wed 11:42:52 AM 42.8006 -71.7639 93° East 286 329 5,300 -1,500 Descending Boston Center
Wed 11:43:52 AM 42.7958 -71.6592 93° East 286 329 3,900 -1,150 Descending Boston Center
Wed 11:44:52 AM 42.7908 -71.5686 94° East 256 295 3,000 -650 Descending Boston Center
Wed 11:45:52 AM 42.7967 -71.4836 85° East 227 261 2,600 -400 Descending Boston Center

Login

Don't have an account? Register now (free) for customized features, flight alerts, and more!